sensor_id;sensor_type;location;lat;lon;timestamp;pressure;altitude;pressure_sealevel;temperature;humidity
64158;BME280;50449;51.528;5.076;2023-09-30T00:00:45;102407.75;;;18.85;56.58
64158;BME280;50449;51.528;5.076;2023-09-30T00:03:10;102408.81;;;18.84;56.52
64158;BME280;50449;51.528;5.076;2023-09-30T00:05:37;102417.03;;;18.84;56.71
64158;BME280;50449;51.528;5.076;2023-09-30T00:08:03;102412.91;;;18.81;56.86
64158;BME280;50449;51.528;5.076;2023-09-30T00:10:29;102417.56;;;18.81;56.97
64158;BME280;50449;51.528;5.076;2023-09-30T00:12:56;102408.78;;;18.79;56.98
64158;BME280;50449;51.528;5.076;2023-09-30T00:15:21;102408.19;;;18.77;56.94
64158;BME280;50449;51.528;5.076;2023-09-30T00:17:47;102403.81;;;18.76;57.03
64158;BME280;50449;51.528;5.076;2023-09-30T00:20:12;102407.63;;;18.75;56.60
64158;BME280;50449;51.528;5.076;2023-09-30T00:22:40;102388.69;;;18.73;56.65
64158;BME280;50449;51.528;5.076;2023-09-30T00:25:06;102392.53;;;18.72;56.56
64158;BME280;50449;51.528;5.076;2023-09-30T00:27:31;102405.38;;;18.72;56.63
64158;BME280;50449;51.528;5.076;2023-09-30T00:29:57;102419.34;;;18.70;57.02
64158;BME280;50449;51.528;5.076;2023-09-30T00:32:22;102421.50;;;18.68;56.84
64158;BME280;50449;51.528;5.076;2023-09-30T00:34:48;102423.41;;;18.68;56.69
64158;BME280;50449;51.528;5.076;2023-09-30T00:37:14;102431.88;;;18.66;56.73
64158;BME280;50449;51.528;5.076;2023-09-30T00:39:39;102432.09;;;18.65;56.53
64158;BME280;50449;51.528;5.076;2023-09-30T00:42:05;102424.16;;;18.63;57.16
64158;BME280;50449;51.528;5.076;2023-09-30T00:44:30;102417.03;;;18.62;56.64
64158;BME280;50449;51.528;5.076;2023-09-30T00:46:56;102420.03;;;18.60;56.97
64158;BME280;50449;51.528;5.076;2023-09-30T00:49:23;102424.94;;;18.58;56.86
64158;BME280;50449;51.528;5.076;2023-09-30T00:51:50;102430.41;;;18.58;57.04
64158;BME280;50449;51.528;5.076;2023-09-30T00:54:17;102429.81;;;18.56;56.72
64158;BME280;50449;51.528;5.076;2023-09-30T00:56:45;102423.78;;;18.54;57.06
64158;BME280;50449;51.528;5.076;2023-09-30T00:59:14;102420.50;;;18.52;57.05
64158;BME280;50449;51.528;5.076;2023-09-30T01:01:44;102427.84;;;18.52;56.77
64158;BME280;50449;51.528;5.076;2023-09-30T01:04:14;102425.38;;;18.50;57.25
64158;BME280;50449;51.528;5.076;2023-09-30T01:06:40;102430.88;;;18.50;56.83
64158;BME280;50449;51.528;5.076;2023-09-30T01:09:07;102436.56;;;18.49;57.26
64158;BME280;50449;51.528;5.076;2023-09-30T01:11:33;102450.25;;;18.49;56.72
64158;BME280;50449;51.528;5.076;2023-09-30T01:13:58;102467.19;;;18.46;56.82
64158;BME280;50449;51.528;5.076;2023-09-30T01:16:23;102460.06;;;18.45;57.13
64158;BME280;50449;51.528;5.076;2023-09-30T01:18:49;102466.63;;;18.44;56.88
64158;BME280;50449;51.528;5.076;2023-09-30T01:21:15;102470.44;;;18.43;56.77
64158;BME280;50449;51.528;5.076;2023-09-30T01:23:41;102466.31;;;18.40;56.78
64158;BME280;50449;51.528;5.076;2023-09-30T01:26:10;102460.84;;;18.40;57.25
64158;BME280;50449;51.528;5.076;2023-09-30T01:28:38;102460.00;;;18.40;57.45
64158;BME280;50449;51.528;5.076;2023-09-30T01:31:04;102456.69;;;18.37;57.34
64158;BME280;50449;51.528;5.076;2023-09-30T01:33:29;102454.19;;;18.36;56.79
64158;BME280;50449;51.528;5.076;2023-09-30T01:35:55;102447.91;;;18.35;57.31
64158;BME280;50449;51.528;5.076;2023-09-30T01:38:20;102453.63;;;18.34;57.35
64158;BME280;50449;51.528;5.076;2023-09-30T01:40:47;102450.06;;;18.33;57.28
64158;BME280;50449;51.528;5.076;2023-09-30T01:43:13;102451.16;;;18.32;57.03
64158;BME280;50449;51.528;5.076;2023-09-30T01:45:40;102448.66;;;18.31;56.97
64158;BME280;50449;51.528;5.076;2023-09-30T01:48:06;102448.09;;;18.29;56.87
64158;BME280;50449;51.528;5.076;2023-09-30T01:50:31;102451.09;;;18.27;56.96
64158;BME280;50449;51.528;5.076;2023-09-30T01:52:57;102442.03;;;18.27;57.17
64158;BME280;50449;51.528;5.076;2023-09-30T01:55:22;102448.59;;;18.26;57.41
64158;BME280;50449;51.528;5.076;2023-09-30T01:57:48;102446.09;;;18.24;56.95
64158;BME280;50449;51.528;5.076;2023-09-30T02:00:13;102440.09;;;18.22;57.28
64158;BME280;50449;51.528;5.076;2023-09-30T02:02:38;102440.31;;;18.21;56.75
64158;BME280;50449;51.528;5.076;2023-09-30T02:05:04;102453.19;;;18.20;57.27
64158;BME280;50449;51.528;5.076;2023-09-30T02:07:33;102459.72;;;18.19;57.35
64158;BME280;50449;51.528;5.076;2023-09-30T02:09:59;102455.31;;;18.18;57.44
64158;BME280;50449;51.528;5.076;2023-09-30T02:12:26;102457.25;;;18.17;57.48
64158;BME280;50449;51.528;5.076;2023-09-30T02:14:53;102452.84;;;18.16;57.28
64158;BME280;50449;51.528;5.076;2023-09-30T02:17:18;102456.66;;;18.15;57.10
64158;BME280;50449;51.528;5.076;2023-09-30T02:19:44;102457.75;;;18.14;57.18
64158;BME280;50449;51.528;5.076;2023-09-30T02:22:09;102458.00;;;18.13;57.22
64158;BME280;50449;51.528;5.076;2023-09-30T02:24:34;102450.63;;;18.13;57.18
64158;BME280;50449;51.528;5.076;2023-09-30T02:27:00;102446.22;;;18.12;57.35
64158;BME280;50449;51.528;5.076;2023-09-30T02:29:25;102453.84;;;18.10;56.98
64158;BME280;50449;51.528;5.076;2023-09-30T02:31:51;102456.81;;;18.09;57.62
64158;BME280;50449;51.528;5.076;2023-09-30T02:34:16;102464.22;;;18.08;57.42
64158;BME280;50449;51.528;5.076;2023-09-30T02:36:42;102459.00;;;18.07;57.11
64158;BME280;50449;51.528;5.076;2023-09-30T02:39:08;102447.50;;;18.05;57.30
64158;BME280;50449;51.528;5.076;2023-09-30T02:41:36;102435.72;;;18.04;57.10
64158;BME280;50449;51.528;5.076;2023-09-30T02:44:03;102439.53;;;18.03;57.39
64158;BME280;50449;51.528;5.076;2023-09-30T02:46:28;102439.81;;;18.02;57.48
64158;BME280;50449;51.528;5.076;2023-09-30T02:48:54;102440.84;;;18.01;56.99
64158;BME280;50449;51.528;5.076;2023-09-30T02:51:19;102440.84;;;18.01;57.37
64158;BME280;50449;51.528;5.076;2023-09-30T02:53:45;102443.00;;;17.99;57.52
64158;BME280;50449;51.528;5.076;2023-09-30T02:56:11;102448.75;;;17.97;57.06
64158;BME280;50449;51.528;5.076;2023-09-30T02:58:37;102445.16;;;17.97;57.61
64158;BME280;50449;51.528;5.076;2023-09-30T03:01:03;102449.00;;;17.95;57.06
64158;BME280;50449;51.528;5.076;2023-09-30T03:03:29;102450.91;;;17.95;57.17
64158;BME280;50449;51.528;5.076;2023-09-30T03:05:56;102451.97;;;17.94;57.33
64158;BME280;50449;51.528;5.076;2023-09-30T03:08:22;102453.06;;;17.93;57.22
64158;BME280;50449;51.528;5.076;2023-09-30T03:10:49;102450.56;;;17.91;57.19
64158;BME280;50449;51.528;5.076;2023-09-30T03:13:14;102452.47;;;17.91;57.26
64158;BME280;50449;51.528;5.076;2023-09-30T03:15:40;102449.16;;;17.89;57.57
64158;BME280;50449;51.528;5.076;2023-09-30T03:18:05;102438.22;;;17.89;57.63
64158;BME280;50449;51.528;5.076;2023-09-30T03:20:30;102431.09;;;17.88;57.23
64158;BME280;50449;51.528;5.076;2023-09-30T03:22:56;102425.06;;;17.86;57.20
64158;BME280;50449;51.528;5.076;2023-09-30T03:25:22;102420.69;;;17.85;57.11
64158;BME280;50449;51.528;5.076;2023-09-30T03:27:48;102427.19;;;17.84;57.19
64158;BME280;50449;51.528;5.076;2023-09-30T03:30:14;102429.13;;;17.83;57.03
64158;BME280;50449;51.528;5.076;2023-09-30T03:32:41;102432.13;;;17.82;57.63
64158;BME280;50449;51.528;5.076;2023-09-30T03:35:09;102437.59;;;17.82;57.55
64158;BME280;50449;51.528;5.076;2023-09-30T03:37:44;102447.94;;;17.80;57.64
64158;BME280;50449;51.528;5.076;2023-09-30T03:40:10;102448.16;;;17.78;57.37
64158;BME280;50449;51.528;5.076;2023-09-30T03:42:59;102442.94;;;17.77;57.14
64158;BME280;50449;51.528;5.076;2023-09-30T03:45:24;102438.53;;;17.76;57.64
64158;BME280;50449;51.528;5.076;2023-09-30T03:47:49;102434.97;;;17.75;57.44
64158;BME280;50449;51.528;5.076;2023-09-30T03:50:17;102430.59;;;17.74;57.19
64158;BME280;50449;51.528;5.076;2023-09-30T03:52:43;102432.75;;;17.72;57.56
64158;BME280;50449;51.528;5.076;2023-09-30T03:55:12;102436.31;;;17.72;57.64
64158;BME280;50449;51.528;5.076;2023-09-30T03:57:39;102427.53;;;17.70;57.52
64158;BME280;50449;51.528;5.076;2023-09-30T04:00:05;102428.63;;;17.69;57.19
64158;BME280;50449;51.528;5.076;2023-09-30T04:02:32;102428.84;;;17.68;57.25
64158;BME280;50449;51.528;5.076;2023-09-30T04:04:57;102436.22;;;17.67;57.19
64158;BME280;50449;51.528;5.076;2023-09-30T04:07:24;102435.41;;;17.67;57.61
64158;BME280;50449;51.528;5.076;2023-09-30T04:09:55;102432.91;;;17.65;57.69
64158;BME280;50449;51.528;5.076;2023-09-30T04:12:21;102436.72;;;17.64;57.57
64158;BME280;50449;51.528;5.076;2023-09-30T04:14:49;102427.69;;;17.64;57.62
64158;BME280;50449;51.528;5.076;2023-09-30T04:17:14;102426.03;;;17.63;57.70
64158;BME280;50449;51.528;5.076;2023-09-30T04:19:40;102429.88;;;17.62;57.60
64158;BME280;50449;51.528;5.076;2023-09-30T04:22:05;102424.63;;;17.60;57.65
64158;BME280;50449;51.528;5.076;2023-09-30T04:24:30;102412.06;;;17.59;57.28
64158;BME280;50449;51.528;5.076;2023-09-30T04:26:56;102420.50;;;17.58;57.66
64158;BME280;50449;51.528;5.076;2023-09-30T04:29:27;102427.06;;;17.57;57.28
64158;BME280;50449;51.528;5.076;2023-09-30T04:31:53;102429.19;;;17.55;57.24
64158;BME280;50449;51.528;5.076;2023-09-30T04:34:19;102438.22;;;17.55;57.79
64158;BME280;50449;51.528;5.076;2023-09-30T04:36:45;102433.84;;;17.54;57.21
64158;BME280;50449;51.528;5.076;2023-09-30T04:39:10;102423.97;;;17.53;57.68
64158;BME280;50449;51.528;5.076;2023-09-30T04:41:37;102436.81;;;17.52;57.25
64158;BME280;50449;51.528;5.076;2023-09-30T04:44:06;102438.94;;;17.50;57.21
64158;BME280;50449;51.528;5.076;2023-09-30T04:46:32;102441.69;;;17.50;57.51
64158;BME280;50449;51.528;5.076;2023-09-30T04:48:57;102440.03;;;17.49;57.60
64158;BME280;50449;51.528;5.076;2023-09-30T04:51:22;102449.28;;;17.48;57.57
64158;BME280;50449;51.528;5.076;2023-09-30T04:53:50;102458.59;;;17.47;57.74
64158;BME280;50449;51.528;5.076;2023-09-30T04:56:16;102451.47;;;17.46;57.73
64158;BME280;50449;51.528;5.076;2023-09-30T04:58:41;102453.63;;;17.44;57.63
64158;BME280;50449;51.528;5.076;2023-09-30T05:01:07;102450.06;;;17.44;57.23
64158;BME280;50449;51.528;5.076;2023-09-30T05:03:34;102440.19;;;17.43;57.36
64158;BME280;50449;51.528;5.076;2023-09-30T05:06:00;102451.13;;;17.43;57.24
64158;BME280;50449;51.528;5.076;2023-09-30T05:08:25;102451.38;;;17.41;57.32
64158;BME280;50449;51.528;5.076;2023-09-30T05:10:51;102454.13;;;17.41;57.25
64158;BME280;50449;51.528;5.076;2023-09-30T05:13:20;102452.44;;;17.40;57.67
64158;BME280;50449;51.528;5.076;2023-09-30T05:15:45;102452.72;;;17.39;57.68
64158;BME280;50449;51.528;5.076;2023-09-30T05:18:11;102458.16;;;17.39;57.70
64158;BME280;50449;51.528;5.076;2023-09-30T05:20:37;102464.69;;;17.38;57.29
64158;BME280;50449;51.528;5.076;2023-09-30T05:23:04;102466.84;;;17.36;57.78
64158;BME280;50449;51.528;5.076;2023-09-30T05:25:31;102461.38;;;17.36;57.28
64158;BME280;50449;51.528;5.076;2023-09-30T05:27:56;102457.81;;;17.35;57.62
64158;BME280;50449;51.528;5.076;2023-09-30T05:30:22;102460.56;;;17.35;57.83
64158;BME280;50449;51.528;5.076;2023-09-30T05:32:47;102458.31;;;17.32;57.83
64158;BME280;50449;51.528;5.076;2023-09-30T05:35:12;102464.00;;;17.30;57.74
64158;BME280;50449;51.528;5.076;2023-09-30T05:37:42;102470.28;;;17.31;57.80
64158;BME280;50449;51.528;5.076;2023-09-30T05:40:08;102462.38;;;17.29;57.25
64158;BME280;50449;51.528;5.076;2023-09-30T05:42:45;102468.88;;;17.28;57.30
64158;BME280;50449;51.528;5.076;2023-09-30T05:45:11;102468.06;;;17.28;57.47
64158;BME280;50449;51.528;5.076;2023-09-30T05:47:39;102473.78;;;17.26;57.66
64158;BME280;50449;51.528;5.076;2023-09-30T05:50:06;102474.84;;;17.25;57.45
64158;BME280;50449;51.528;5.076;2023-09-30T05:52:32;102486.03;;;17.24;57.32
64158;BME280;50449;51.528;5.076;2023-09-30T05:54:57;102485.19;;;17.23;57.40
64158;BME280;50449;51.528;5.076;2023-09-30T05:57:23;102486.28;;;17.22;57.88
64158;BME280;50449;51.528;5.076;2023-09-30T05:59:48;102493.63;;;17.22;57.94
64158;BME280;50449;51.528;5.076;2023-09-30T06:02:15;102491.13;;;17.20;57.92
64158;BME280;50449;51.528;5.076;2023-09-30T06:04:40;102485.69;;;17.20;57.42
64158;BME280;50449;51.528;5.076;2023-09-30T06:07:06;102494.97;;;17.19;57.35
64158;BME280;50449;51.528;5.076;2023-09-30T06:09:31;102488.66;;;17.19;57.50
64158;BME280;50449;51.528;5.076;2023-09-30T06:11:56;102488.91;;;17.17;57.35
64158;BME280;50449;51.528;5.076;2023-09-30T06:14:22;102482.63;;;17.17;57.49
64158;BME280;50449;51.528;5.076;2023-09-30T06:16:47;102484.53;;;17.16;57.35
64158;BME280;50449;51.528;5.076;2023-09-30T06:19:13;102478.22;;;17.16;57.33
64158;BME280;50449;51.528;5.076;2023-09-30T06:21:38;102471.09;;;17.15;57.61
64158;BME280;50449;51.528;5.076;2023-09-30T06:24:05;102483.13;;;17.14;57.63
64158;BME280;50449;51.528;5.076;2023-09-30T06:26:30;102487.72;;;17.13;57.94
64158;BME280;50449;51.528;5.076;2023-09-30T06:28:56;102484.16;;;17.13;57.77
64158;BME280;50449;51.528;5.076;2023-09-30T06:31:22;102483.59;;;17.11;57.66
64158;BME280;50449;51.528;5.076;2023-09-30T06:33:48;102483.59;;;17.11;57.79
64158;BME280;50449;51.528;5.076;2023-09-30T06:36:13;102485.50;;;17.10;57.31
64158;BME280;50449;51.528;5.076;2023-09-30T06:38:40;102490.94;;;17.10;57.38
64158;BME280;50449;51.528;5.076;2023-09-30T06:41:07;102497.50;;;17.09;57.38
64158;BME280;50449;51.528;5.076;2023-09-30T06:43:33;102501.28;;;17.08;57.78
64158;BME280;50449;51.528;5.076;2023-09-30T06:46:05;102497.72;;;17.07;57.79
64158;BME280;50449;51.528;5.076;2023-09-30T06:48:32;102500.72;;;17.06;57.72
64158;BME280;50449;51.528;5.076;2023-09-30T06:50:58;102513.50;;;17.05;57.85
64158;BME280;50449;51.528;5.076;2023-09-30T06:53:24;102529.06;;;17.05;57.93
64158;BME280;50449;51.528;5.076;2023-09-30T06:55:49;102533.94;;;17.03;57.71
64158;BME280;50449;51.528;5.076;2023-09-30T06:58:16;102533.94;;;17.03;57.49
64158;BME280;50449;51.528;5.076;2023-09-30T07:00:52;102536.94;;;17.01;57.77
64158;BME280;50449;51.528;5.076;2023-09-30T07:03:18;102542.41;;;17.01;57.82
64158;BME280;50449;51.528;5.076;2023-09-30T07:05:47;102536.06;;;17.01;57.62
64158;BME280;50449;51.528;5.076;2023-09-30T07:08:18;102536.56;;;16.98;57.94
64158;BME280;50449;51.528;5.076;2023-09-30T07:10:44;102541.22;;;16.97;57.59
64158;BME280;50449;51.528;5.076;2023-09-30T07:13:11;102536.84;;;16.96;57.62
64158;BME280;50449;51.528;5.076;2023-09-30T07:15:37;102545.03;;;16.96;57.81
64158;BME280;50449;51.528;5.076;2023-09-30T07:18:03;102560.31;;;16.97;57.99
64158;BME280;50449;51.528;5.076;2023-09-30T07:20:28;102567.69;;;16.97;57.41
64158;BME280;50449;51.528;5.076;2023-09-30T07:22:58;102567.09;;;16.95;57.99
64158;BME280;50449;51.528;5.076;2023-09-30T07:25:24;102578.59;;;16.97;57.93
64158;BME280;50449;51.528;5.076;2023-09-30T07:27:49;102577.78;;;16.96;57.94
64158;BME280;50449;51.528;5.076;2023-09-30T07:30:15;102583.25;;;16.96;57.88
64158;BME280;50449;51.528;5.076;2023-09-30T07:32:42;102577.19;;;16.94;57.79
64158;BME280;50449;51.528;5.076;2023-09-30T07:35:08;102581.56;;;16.95;58.01
64158;BME280;50449;51.528;5.076;2023-09-30T07:37:33;102579.91;;;16.94;57.60
64158;BME280;50449;51.528;5.076;2023-09-30T07:39:59;102579.09;;;16.94;57.55
64158;BME280;50449;51.528;5.076;2023-09-30T07:42:24;102585.13;;;16.96;57.50
64158;BME280;50449;51.528;5.076;2023-09-30T07:44:50;102581.56;;;16.95;57.46
64158;BME280;50449;51.528;5.076;2023-09-30T07:47:16;102577.19;;;16.94;57.97
64158;BME280;50449;51.528;5.076;2023-09-30T07:49:41;102576.38;;;16.94;57.53
64158;BME280;50449;51.528;5.076;2023-09-30T07:52:06;102579.09;;;16.94;58.00
64158;BME280;50449;51.528;5.076;2023-09-30T07:54:32;102575.28;;;16.95;57.83
64158;BME280;50449;51.528;5.076;2023-09-30T07:56:57;102582.63;;;16.94;57.89
64158;BME280;50449;51.528;5.076;2023-09-30T07:59:24;102582.63;;;16.94;57.67
64158;BME280;50449;51.528;5.076;2023-09-30T08:01:49;102582.63;;;16.94;57.70
64158;BME280;50449;51.528;5.076;2023-09-30T08:04:15;102583.25;;;16.96;57.61
64158;BME280;50449;51.528;5.076;2023-09-30T08:06:40;102585.97;;;16.96;57.89
64158;BME280;50449;51.528;5.076;2023-09-30T08:09:05;102583.25;;;16.96;57.66
64158;BME280;50449;51.528;5.076;2023-09-30T08:11:36;102579.44;;;16.97;57.59
64158;BME280;50449;51.528;5.076;2023-09-30T08:14:03;102575.03;;;16.96;57.72
64158;BME280;50449;51.528;5.076;2023-09-30T08:16:32;102567.69;;;16.97;57.61
64158;BME280;50449;51.528;5.076;2023-09-30T08:18:58;102568.72;;;16.96;57.50
64158;BME280;50449;51.528;5.076;2023-09-30T08:21:23;102567.69;;;16.97;57.90
64158;BME280;50449;51.528;5.076;2023-09-30T08:23:49;102569.59;;;16.96;57.88
64158;BME280;50449;51.528;5.076;2023-09-30T08:26:14;102565.78;;;16.97;58.00
64158;BME280;50449;51.528;5.076;2023-09-30T08:28:40;102563.88;;;16.98;58.21
64158;BME280;50449;51.528;5.076;2023-09-30T08:31:05;102563.03;;;16.97;57.80
64158;BME280;50449;51.528;5.076;2023-09-30T08:33:33;102557.59;;;16.97;57.62
64158;BME280;50449;51.528;5.076;2023-09-30T08:36:04;102555.69;;;16.98;58.04
64158;BME280;50449;51.528;5.076;2023-09-30T08:38:36;102559.00;;;17.00;57.69
64158;BME280;50449;51.528;5.076;2023-09-30T08:41:02;102554.38;;;17.00;58.04
64158;BME280;50449;51.528;5.076;2023-09-30T08:43:28;102555.19;;;17.01;57.61
64158;BME280;50449;51.528;5.076;2023-09-30T08:45:56;102543.22;;;17.02;58.21
64158;BME280;50449;51.528;5.076;2023-09-30T08:48:22;102556.63;;;17.03;58.05
64158;BME280;50449;51.528;5.076;2023-09-30T08:50:51;102550.91;;;17.05;57.79
64158;BME280;50449;51.528;5.076;2023-09-30T08:53:18;102553.91;;;17.03;58.17
64158;BME280;50449;51.528;5.076;2023-09-30T08:55:45;102555.56;;;17.04;58.19
64158;BME280;50449;51.528;5.076;2023-09-30T08:58:12;102570.84;;;17.05;58.28
64158;BME280;50449;51.528;5.076;2023-09-30T09:00:38;102574.19;;;17.07;58.06
64158;BME280;50449;51.528;5.076;2023-09-30T09:03:05;102588.66;;;17.08;58.19
64158;BME280;50449;51.528;5.076;2023-09-30T09:05:31;102586.50;;;17.10;57.98
64158;BME280;50449;51.528;5.076;2023-09-30T09:07:56;102585.47;;;17.11;58.23
64158;BME280;50449;51.528;5.076;2023-09-30T09:10:22;102587.94;;;17.13;58.05
64158;BME280;50449;51.528;5.076;2023-09-30T09:12:55;102585.19;;;17.13;58.05
64158;BME280;50449;51.528;5.076;2023-09-30T09:15:24;102592.34;;;17.14;57.96
64158;BME280;50449;51.528;5.076;2023-09-30T09:17:51;102602.19;;;17.15;58.49
64158;BME280;50449;51.528;5.076;2023-09-30T09:20:23;102605.72;;;17.15;58.45
64158;BME280;50449;51.528;5.076;2023-09-30T09:22:51;102611.78;;;17.17;58.34
64158;BME280;50449;51.528;5.076;2023-09-30T09:25:19;102608.81;;;17.19;58.62
64158;BME280;50449;51.528;5.076;2023-09-30T09:27:45;102606.66;;;17.21;58.23
64158;BME280;50449;51.528;5.076;2023-09-30T09:33:13;102624.22;;;17.25;58.65
64158;BME280;50449;51.528;5.076;2023-09-30T09:35:38;102620.19;;;17.27;58.17
64158;BME280;50449;51.528;5.076;2023-09-30T09:38:05;102620.78;;;17.29;58.32
64158;BME280;50449;51.528;5.076;2023-09-30T09:40:35;102624.09;;;17.32;58.79
64158;BME280;50449;51.528;5.076;2023-09-30T09:43:03;102631.00;;;17.34;58.66
64158;BME280;50449;51.528;5.076;2023-09-30T09:45:36;102626.13;;;17.36;58.81
64158;BME280;50449;51.528;5.076;2023-09-30T09:48:03;102626.13;;;17.36;58.53
64158;BME280;50449;51.528;5.076;2023-09-30T09:50:29;102621.47;;;17.37;58.64
64158;BME280;50449;51.528;5.076;2023-09-30T09:52:58;102620.41;;;17.38;58.62
64158;BME280;50449;51.528;5.076;2023-09-30T09:55:26;102626.22;;;17.41;58.74
64158;BME280;50449;51.528;5.076;2023-09-30T09:57:52;102627.88;;;17.42;59.05
64158;BME280;50449;51.528;5.076;2023-09-30T10:00:20;102630.09;;;17.45;59.19
64158;BME280;50449;51.528;5.076;2023-09-30T10:02:46;102635.34;;;17.47;58.85
64158;BME280;50449;51.528;5.076;2023-09-30T10:05:13;102630.69;;;17.47;59.00
64158;BME280;50449;51.528;5.076;2023-09-30T10:07:54;102632.34;;;17.48;59.29
64158;BME280;50449;51.528;5.076;2023-09-30T10:10:22;102635.06;;;17.48;59.70
64158;BME280;50449;51.528;5.076;2023-09-30T10:12:49;102637.34;;;17.51;59.43
64158;BME280;50449;51.528;5.076;2023-09-30T10:20:31;102624.59;;;17.57;59.77
64158;BME280;50449;51.528;5.076;2023-09-30T10:23:22;102615.91;;;17.60;59.76
64158;BME280;50449;51.528;5.076;2023-09-30T10:28:39;102601.53;;;17.65;59.69
64158;BME280;50449;51.528;5.076;2023-09-30T10:31:16;102597.47;;;17.67;59.91
64158;BME280;50449;51.528;5.076;2023-09-30T10:34:20;102591.78;;;17.69;59.93
64158;BME280;50449;51.528;5.076;2023-09-30T10:36:46;102585.81;;;17.72;60.08
64158;BME280;50449;51.528;5.076;2023-09-30T10:39:13;102580.06;;;17.73;59.92
64158;BME280;50449;51.528;5.076;2023-09-30T10:49:43;102581.97;;;17.85;60.66
64158;BME280;50449;51.528;5.076;2023-09-30T10:52:08;102571.63;;;17.87;60.85
64158;BME280;50449;51.528;5.076;2023-09-30T10:54:34;102566.47;;;17.90;60.45
64158;BME280;50449;51.528;5.076;2023-09-30T10:57:00;102567.88;;;17.93;60.95
64158;BME280;50449;51.528;5.076;2023-09-30T10:59:28;102563.81;;;17.95;60.78
64158;BME280;50449;51.528;5.076;2023-09-30T11:01:57;102570.69;;;17.98;60.99
64158;BME280;50449;51.528;5.076;2023-09-30T11:04:23;102565.81;;;18.00;60.90
64158;BME280;50449;51.528;5.076;2023-09-30T11:06:48;102557.38;;;18.02;60.62
64158;BME280;50449;51.528;5.076;2023-09-30T11:09:17;102565.91;;;18.05;60.60
64158;BME280;50449;51.528;5.076;2023-09-30T11:11:44;102560.75;;;18.09;61.04
64158;BME280;50449;51.528;5.076;2023-09-30T11:16:45;102558.94;;;18.14;61.00
64158;BME280;50449;51.528;5.076;2023-09-30T11:19:12;102566.88;;;18.16;61.19
64158;BME280;50449;51.528;5.076;2023-09-30T11:21:39;102569.38;;;18.17;61.27
64158;BME280;50449;51.528;5.076;2023-09-30T11:24:05;102568.88;;;18.21;61.02
64158;BME280;50449;51.528;5.076;2023-09-30T11:26:33;102563.72;;;18.24;60.56
64158;BME280;50449;51.528;5.076;2023-09-30T11:29:13;102563.47;;;18.26;60.62
64158;BME280;50449;51.528;5.076;2023-09-30T11:31:46;102553.94;;;18.28;60.78
64158;BME280;50449;51.528;5.076;2023-09-30T11:34:12;102550.13;;;18.29;60.65
64158;BME280;50449;51.528;5.076;2023-09-30T11:36:39;102544.16;;;18.32;60.70
64158;BME280;50449;51.528;5.076;2023-09-30T11:39:07;102550.22;;;18.34;60.29
64158;BME280;50449;51.528;5.076;2023-09-30T11:41:38;102555.44;;;18.36;60.68
64158;BME280;50449;51.528;5.076;2023-09-30T11:44:09;102552.19;;;18.39;60.64
64158;BME280;50449;51.528;5.076;2023-09-30T11:49:24;102564.88;;;18.45;60.22
64158;BME280;50449;51.528;5.076;2023-09-30T11:51:50;102567.94;;;18.49;60.38
64158;BME280;50449;51.528;5.076;2023-09-30T11:54:16;102559.47;;;18.50;60.53
64158;BME280;50449;51.528;5.076;2023-09-30T11:56:41;102548.84;;;18.54;60.46
64158;BME280;50449;51.528;5.076;2023-09-30T11:59:07;102548.34;;;18.57;60.16
64158;BME280;50449;51.528;5.076;2023-09-30T12:01:38;102552.47;;;18.59;59.61
64158;BME280;50449;51.528;5.076;2023-09-30T12:04:04;102551.41;;;18.60;60.05
64158;BME280;50449;51.528;5.076;2023-09-30T12:06:29;102547.34;;;18.63;59.58
64158;BME280;50449;51.528;5.076;2023-09-30T12:08:55;102540.53;;;18.66;59.81
64158;BME280;50449;51.528;5.076;2023-09-30T12:11:21;102541.34;;;18.66;59.51
64158;BME280;50449;51.528;5.076;2023-09-30T12:13:49;102537.03;;;18.70;59.48
64158;BME280;50449;51.528;5.076;2023-09-30T12:16:15;102534.03;;;18.72;59.12
64158;BME280;50449;51.528;5.076;2023-09-30T12:18:41;102525.34;;;18.75;59.26
64158;BME280;50449;51.528;5.076;2023-09-30T12:21:12;102522.09;;;18.78;59.29
64158;BME280;50449;51.528;5.076;2023-09-30T12:23:45;102523.50;;;18.80;59.23
64158;BME280;50449;51.528;5.076;2023-09-30T12:26:11;102517.75;;;18.82;59.05
64158;BME280;50449;51.528;5.076;2023-09-30T12:28:37;102509.31;;;18.84;59.17
64158;BME280;50449;51.528;5.076;2023-09-30T12:31:05;102514.25;;;18.87;58.77
64158;BME280;50449;51.528;5.076;2023-09-30T12:33:31;102514.59;;;18.90;59.01
64158;BME280;50449;51.528;5.076;2023-09-30T12:35:58;102508.59;;;18.93;58.45
64158;BME280;50449;51.528;5.076;2023-09-30T12:38:26;102511.63;;;18.97;58.60
64158;BME280;50449;51.528;5.076;2023-09-30T12:40:54;102508.66;;;18.98;58.74
64158;BME280;50449;51.528;5.076;2023-09-30T12:43:20;102499.09;;;19.01;58.64
64158;BME280;50449;51.528;5.076;2023-09-30T12:45:46;102513.09;;;19.05;58.32
64158;BME280;50449;51.528;5.076;2023-09-30T12:48:12;102521.88;;;19.07;58.27
64158;BME280;50449;51.528;5.076;2023-09-30T12:50:38;102519.72;;;19.09;58.17
64158;BME280;50449;51.528;5.076;2023-09-30T12:53:03;102519.22;;;19.12;58.02
64158;BME280;50449;51.528;5.076;2023-09-30T12:55:29;102515.41;;;19.13;57.64
64158;BME280;50449;51.528;5.076;2023-09-30T12:57:54;102505.84;;;19.15;57.75
64158;BME280;50449;51.528;5.076;2023-09-30T13:00:20;102503.66;;;19.17;57.46
64158;BME280;50449;51.528;5.076;2023-09-30T13:02:47;102505.03;;;19.20;57.87
64158;BME280;50449;51.528;5.076;2023-09-30T13:05:14;102505.38;;;19.23;57.61
64158;BME280;50449;51.528;5.076;2023-09-30T13:07:39;102503.22;;;19.26;57.32
64158;BME280;50449;51.528;5.076;2023-09-30T13:10:05;102508.41;;;19.27;57.56
64158;BME280;50449;51.528;5.076;2023-09-30T13:12:33;102503.50;;;19.29;57.21